Time;durP1;ratioP1;P1;durP2;ratioP2;P2;SDS_P1;SDS_P2;PMS_P1;PMS_P2;Temp;Humidity;BMP_temperature;BMP_pressure;BME280_temperature;BME280_humidity;BME280_pressure;Samples;Min_cycle;Max_cycle;Signal;HPM_P1;HPM_P2
2021/12/05 00:23:10;;;;;;;1999.90;999.90;;;;;;;;;;5019719;28;20025;-91
2021/12/05 00:25:37;;;;;;;1999.90;999.90;;;;;;;;;;4986160;28;20030;-92
2021/12/05 00:31:10;;;;;;;1999.90;999.90;;;;;;;;;;5038210;28;20095;-91
2021/12/05 00:43:12;;;;;;;1999.90;999.90;;;;;;;;;;5038185;28;20076;-90
2021/12/05 00:53:49;;;;;;;1999.90;999.90;;;;;;;;;;4979563;28;20624;-90
2021/12/05 01:03:55;;;;;;;1999.90;999.90;;;;;;;;;;5018755;28;20033;-91
2021/12/05 01:09:44;;;;;;;1999.90;999.90;;;;;;;;;;5014515;28;20041;-92
2021/12/05 01:17:25;;;;;;;1999.90;999.90;;;;;;;;;;5001702;28;20033;-92
2021/12/05 01:19:52;;;;;;;1999.90;999.90;;;;;;;;;;4997100;28;20114;-91
2021/12/05 01:22:22;;;;;;;1999.90;999.90;;;;;;;;;;5032126;28;20030;-90
2021/12/05 01:25:17;;;;;;;1999.90;999.90;;;;;;;;;;4999755;28;20037;-92
2021/12/05 01:27:58;;;;;;;1999.90;999.90;;;;;;;;;;5004004;28;20491;-91
2021/12/05 01:33:36;;;;;;;1999.90;999.90;;;;;;;;;;5019531;28;20059;-91
2021/12/05 01:38:51;;;;;;;1999.90;999.90;;;;;;;;;;5018623;28;20087;-93
2021/12/05 01:54:54;;;;;;;1556.18;755.15;;;;;;;;;;5023578;28;20061;-91
2021/12/05 02:00:50;;;;;;;1999.90;999.90;;;;;;;;;;5041167;28;20514;-90
2021/12/05 02:31:05;;;;;;;1999.90;999.90;;;;;;;;;;5040570;28;20045;-90
2021/12/05 02:36:32;;;;;;;1999.90;999.90;;;;;;;;;;5025284;28;20044;-91
2021/12/05 02:41:35;;;;;;;1999.90;999.90;;;;;;;;;;5037680;28;20037;-92
2021/12/05 02:44:10;;;;;;;1999.90;999.90;;;;;;;;;;5006438;28;20037;-92
2021/12/05 02:46:41;;;;;;;1999.90;999.90;;;;;;;;;;5023823;28;20056;-91
2021/12/05 02:49:11;;;;;;;1999.90;999.90;;;;;;;;;;5006542;28;20036;-91
2021/12/05 02:51:36;;;;;;;1999.90;999.90;;;;;;;;;;5022439;28;20029;-90
2021/12/05 02:54:10;;;;;;;1999.90;999.90;;;;;;;;;;5005678;28;20033;-90
2021/12/05 02:56:43;;;;;;;1999.90;999.90;;;;;;;;;;5007521;28;20058;-91
2021/12/05 02:59:57;;;;;;;1999.90;999.90;;;;;;;;;;5021808;28;20036;-91
2021/12/05 03:02:03;;;;;;;1999.90;999.90;;;;;;;;;;5019452;28;20048;-92
2021/12/05 03:04:33;;;;;;;1999.90;999.90;;;;;;;;;;5037807;28;20123;-90
2021/12/05 03:07:04;;;;;;;1999.90;999.90;;;;;;;;;;5004731;28;20037;-90
2021/12/05 03:09:32;;;;;;;1999.90;999.90;;;;;;;;;;5021827;28;20032;-90
2021/12/05 03:11:58;;;;;;;1999.90;999.90;;;;;;;;;;5021670;28;20529;-91
2021/12/05 03:14:23;;;;;;;1999.90;999.90;;;;;;;;;;5021405;28;20119;-91
2021/12/05 03:16:52;;;;;;;1999.90;999.90;;;;;;;;;;5004731;28;20471;-90
2021/12/05 03:19:19;;;;;;;1999.90;999.90;;;;;;;;;;5005258;28;20055;-89
2021/12/05 03:21:47;;;;;;;1999.90;999.90;;;;;;;;;;5004970;28;20110;-91
2021/12/05 03:24:15;;;;;;;1999.90;999.90;;;;;;;;;;5016666;28;20508;-92
2021/12/05 03:26:43;;;;;;;1999.90;999.90;;;;;;;;;;5003178;28;20067;-92
2021/12/05 03:29:12;;;;;;;1999.90;999.90;;;;;;;;;;5018040;28;20580;-91
2021/12/05 03:31:39;;;;;;;1999.90;999.90;;;;;;;;;;4985956;28;20475;-91
2021/12/05 03:34:21;;;;;;;1999.90;999.90;;;;;;;;;;5004773;28;20033;-92
2021/12/05 03:36:54;;;;;;;1999.90;999.90;;;;;;;;;;5005597;28;20499;-91
2021/12/05 03:39:23;;;;;;;1999.90;999.90;;;;;;;;;;5004557;28;20601;-93
2021/12/05 03:41:48;;;;;;;1999.90;999.90;;;;;;;;;;5004404;28;20052;-93
2021/12/05 03:44:17;;;;;;;1999.90;999.90;;;;;;;;;;5004151;28;20029;-93
2021/12/05 03:46:46;;;;;;;1999.90;999.90;;;;;;;;;;5004349;28;20033;-93
2021/12/05 03:49:13;;;;;;;1999.90;999.90;;;;;;;;;;5021070;28;20076;-92
2021/12/05 03:51:42;;;;;;;1999.90;999.90;;;;;;;;;;5004506;28;20068;-91
2021/12/05 03:54:08;;;;;;;1999.90;999.90;;;;;;;;;;5020770;28;20124;-92
2021/12/05 03:56:35;;;;;;;1999.90;999.90;;;;;;;;;;5004156;28;20132;-92
2021/12/05 03:59:02;;;;;;;1999.90;999.90;;;;;;;;;;5004232;28;20033;-93
2021/12/05 04:01:31;;;;;;;1999.90;999.90;;;;;;;;;;5004660;28;20033;-93
2021/12/05 04:04:00;;;;;;;1999.90;999.90;;;;;;;;;;5020239;28;20029;-91
2021/12/05 04:06:26;;;;;;;1999.90;999.90;;;;;;;;;;5004160;28;20039;-92
2021/12/05 04:08:55;;;;;;;1999.90;999.90;;;;;;;;;;5003954;28;20041;-92
2021/12/05 04:11:28;;;;;;;1999.90;999.90;;;;;;;;;;5020441;28;20195;-90
2021/12/05 04:13:56;;;;;;;1999.90;999.90;;;;;;;;;;4988235;28;20030;-93
2021/12/05 04:16:25;;;;;;;1999.90;999.90;;;;;;;;;;5003929;28;20043;-92
2021/12/05 04:18:51;;;;;;;587.38;258.83;;;;;;;;;;5019899;28;20052;-91
2021/12/05 04:21:17;;;;;;;1999.90;999.90;;;;;;;;;;5002878;28;20033;-92
2021/12/05 04:23:43;;;;;;;1999.90;999.90;;;;;;;;;;4996590;28;20029;-92
2021/12/05 04:26:12;;;;;;;1999.90;999.90;;;;;;;;;;5020116;28;20446;-91
2021/12/05 04:28:39;;;;;;;1999.90;999.90;;;;;;;;;;5017441;28;20083;-91
2021/12/05 04:31:10;;;;;;;1999.90;999.90;;;;;;;;;;5000526;28;20064;-93
2021/12/05 04:33:36;;;;;;;1999.90;999.90;;;;;;;;;;5000455;28;20041;-91
2021/12/05 04:36:05;;;;;;;1999.90;999.90;;;;;;;;;;5000301;28;20080;-92
2021/12/05 04:38:34;;;;;;;1999.90;999.90;;;;;;;;;;4999960;28;20033;-90
2021/12/05 04:41:01;;;;;;;1999.90;999.90;;;;;;;;;;5015805;28;20045;-91
2021/12/05 04:43:26;;;;;;;1999.90;999.90;;;;;;;;;;5003213;28;20025;-92
2021/12/05 04:45:53;;;;;;;1999.90;999.90;;;;;;;;;;5003725;28;20044;-92
2021/12/05 04:48:21;;;;;;;1999.90;999.90;;;;;;;;;;5003253;28;20033;-92
2021/12/05 04:50:47;;;;;;;1999.90;999.90;;;;;;;;;;5019993;28;20051;-93
2021/12/05 04:53:15;;;;;;;1999.90;999.90;;;;;;;;;;5003449;28;20478;-92
2021/12/05 04:55:43;;;;;;;1999.90;999.90;;;;;;;;;;5002789;28;20032;-91
2021/12/05 04:58:09;;;;;;;1999.90;999.90;;;;;;;;;;5035358;28;20025;-92
2021/12/05 05:00:40;;;;;;;1999.90;999.90;;;;;;;;;;5019446;28;20063;-92
2021/12/05 05:03:07;;;;;;;1999.90;999.90;;;;;;;;;;5002735;28;20123;-92
2021/12/05 05:05:43;;;;;;;1999.90;999.90;;;;;;;;;;5003094;28;20052;-91
2021/12/05 05:08:09;;;;;;;1999.90;999.90;;;;;;;;;;5000338;28;20159;-93
2021/12/05 05:10:34;;;;;;;1999.90;999.90;;;;;;;;;;4999354;28;20128;-91
2021/12/05 05:13:01;;;;;;;1999.90;999.90;;;;;;;;;;4999656;28;20040;-92
2021/12/05 05:15:30;;;;;;;1999.90;999.90;;;;;;;;;;5019888;28;20041;-92
2021/12/05 05:17:57;;;;;;;1999.90;999.90;;;;;;;;;;5031880;28;20030;-92
2021/12/05 05:43:11;;;;;;;1999.90;999.90;;;;;;;;;;4975493;28;20065;-91
2021/12/05 05:48:32;;;;;;;1999.90;999.90;;;;;;;;;;5031551;28;20048;-92
2021/12/05 05:50:58;;;;;;;1999.90;999.90;;;;;;;;;;5000825;28;20520;-89
2021/12/05 05:53:24;;;;;;;1999.90;999.90;;;;;;;;;;5014322;28;20035;-87
2021/12/05 05:55:53;;;;;;;1999.90;999.90;;;;;;;;;;5015056;28;20033;-91
2021/12/05 05:58:22;;;;;;;1999.90;999.90;;;;;;;;;;4999254;28;20131;-90
2021/12/05 06:03:25;;;;;;;1999.90;999.90;;;;;;;;;;5031255;28;20407;-89
2021/12/05 06:06:05;;;;;;;1999.90;999.90;;;;;;;;;;5014871;28;20116;-88
2021/12/05 06:08:36;;;;;;;1999.90;999.90;;;;;;;;;;5013243;28;20119;-90
2021/12/05 06:11:07;;;;;;;1999.90;999.90;;;;;;;;;;5037772;28;20040;-90
2021/12/05 06:13:35;;;;;;;1999.90;999.90;;;;;;;;;;5038102;28;20036;-90
2021/12/05 06:16:02;;;;;;;1999.90;999.90;;;;;;;;;;5002714;28;20056;-89
2021/12/05 06:18:29;;;;;;;1999.90;999.90;;;;;;;;;;4982400;28;20044;-89
2021/12/05 06:20:55;;;;;;;1999.90;999.90;;;;;;;;;;4981907;28;20076;-88
2021/12/05 06:23:21;;;;;;;1999.90;999.90;;;;;;;;;;4998041;28;20036;-88
2021/12/05 06:25:49;;;;;;;1999.90;999.90;;;;;;;;;;4982389;28;20041;-89
2021/12/05 06:28:19;;;;;;;1999.90;999.90;;;;;;;;;;4982168;28;20159;-88
2021/12/05 06:31:08;;;;;;;1999.90;999.90;;;;;;;;;;4998803;28;20083;-88
2021/12/05 06:42:01;;;;;;;1537.20;753.33;;;;;;;;;;5021537;23;20436;-81
2021/12/05 06:47:12;;;;;;;1999.90;999.90;;;;;;;;;;4984313;28;20034;-81
2021/12/05 06:49:39;;;;;;;1999.90;999.90;;;;;;;;;;4994361;28;20030;-82
2021/12/05 06:52:05;;;;;;;1999.90;999.90;;;;;;;;;;4995251;28;20038;-81
2021/12/05 06:54:30;;;;;;;1999.90;999.90;;;;;;;;;;4997040;28;20372;-81
2021/12/05 06:56:57;;;;;;;1999.90;999.90;;;;;;;;;;4981315;28;20029;-82
2021/12/05 06:59:22;;;;;;;1999.90;999.90;;;;;;;;;;4981322;28;20053;-82
2021/12/05 07:01:47;;;;;;;1999.90;999.90;;;;;;;;;;4995947;28;20443;-83
2021/12/05 07:06:57;;;;;;;1999.90;999.90;;;;;;;;;;4999879;28;20038;-82
2021/12/05 07:09:23;;;;;;;1999.90;999.90;;;;;;;;;;4993924;28;20054;-81
2021/12/05 07:12:31;;;;;;;1999.90;999.90;;;;;;;;;;4993920;28;20042;-83
2021/12/05 07:17:08;;;;;;;1999.90;999.90;;;;;;;;;;4977469;28;20497;-83
2021/12/05 07:22:28;;;;;;;1999.90;999.90;;;;;;;;;;5000412;28;20040;-89
2021/12/05 07:25:12;;;;;;;1999.90;999.90;;;;;;;;;;4982902;28;20013;-90
2021/12/05 07:41:54;;;;;;;1999.90;999.90;;;;;;;;;;5000299;28;20030;-93
2021/12/05 07:44:33;;;;;;;1999.90;999.90;;;;;;;;;;4992446;28;20049;-91
2021/12/05 07:47:43;;;;;;;1999.90;999.90;;;;;;;;;;4966144;28;20026;-93
2021/12/05 07:50:58;;;;;;;1999.90;999.90;;;;;;;;;;4974342;28;20038;-94
2021/12/05 07:54:45;;;;;;;1999.90;999.90;;;;;;;;;;4918299;28;20117;-94
2021/12/05 08:15:13;;;;;;;1999.90;999.90;;;;;;;;;;4982510;28;20523;-93
2021/12/05 08:17:52;;;;;;;1999.90;999.90;;;;;;;;;;4960443;28;20620;-93
2021/12/05 08:20:21;;;;;;;1999.90;999.90;;;;;;;;;;4960579;28;20046;-93
2021/12/05 08:22:46;;;;;;;1999.90;999.90;;;;;;;;;;4995004;28;20033;-91
2021/12/05 08:25:13;;;;;;;1999.90;999.90;;;;;;;;;;4978785;28;20042;-93
2021/12/05 08:27:46;;;;;;;1999.90;999.90;;;;;;;;;;4996862;28;20042;-92
2021/12/05 08:30:17;;;;;;;1999.90;999.90;;;;;;;;;;4987091;28;20018;-91
2021/12/05 08:38:54;;;;;;;1999.90;999.90;;;;;;;;;;4978507;28;20042;-92
2021/12/05 10:06:52;;;;;;;1999.90;999.90;;;;;;;;;;4997032;28;20349;-84
2021/12/05 10:17:31;;;;;;;1999.90;999.90;;;;;;;;;;4992212;28;20041;-83
2021/12/05 10:26:25;;;;;;;1999.90;999.90;;;;;;;;;;5008591;28;20035;-83
2021/12/05 10:34:12;;;;;;;1999.90;999.90;;;;;;;;;;5014542;28;20029;-84
2021/12/05 10:36:40;;;;;;;1999.90;999.90;;;;;;;;;;4981571;28;20038;-83
2021/12/05 10:39:10;;;;;;;1999.90;999.90;;;;;;;;;;4982205;28;20117;-84
2021/12/05 10:44:10;;;;;;;1999.90;999.90;;;;;;;;;;4998190;28;20030;-82
2021/12/05 10:46:39;;;;;;;1999.90;999.90;;;;;;;;;;4965463;28;20584;-83
2021/12/05 10:49:09;;;;;;;1999.90;999.90;;;;;;;;;;4981742;28;20076;-83
2021/12/05 10:51:43;;;;;;;1999.90;999.90;;;;;;;;;;4997574;28;20419;-83
2021/12/05 10:54:30;;;;;;;1999.90;999.90;;;;;;;;;;4982234;28;20026;-83
2021/12/05 10:57:00;;;;;;;1999.90;999.90;;;;;;;;;;4983774;28;20021;-83
2021/12/05 10:59:38;;;;;;;1999.90;999.90;;;;;;;;;;4965319;28;20045;-83
2021/12/05 11:02:09;;;;;;;1999.90;999.90;;;;;;;;;;4966206;28;20030;-83
2021/12/05 11:04:38;;;;;;;1999.90;999.90;;;;;;;;;;4981538;28;20030;-84
2021/12/05 11:07:10;;;;;;;1999.90;999.90;;;;;;;;;;4965255;28;20033;-83
2021/12/05 11:09:46;;;;;;;1999.90;999.90;;;;;;;;;;5049407;28;20045;-83
2021/12/05 11:12:24;;;;;;;1999.90;999.90;;;;;;;;;;4984570;28;20030;-83
2021/12/05 11:14:58;;;;;;;1999.90;999.90;;;;;;;;;;5004497;28;20033;-82
2021/12/05 11:17:30;;;;;;;1999.90;999.90;;;;;;;;;;4993744;28;20121;-82
2021/12/05 11:20:11;;;;;;;1999.90;999.90;;;;;;;;;;4977793;28;20077;-83
2021/12/05 11:22:40;;;;;;;1999.90;999.90;;;;;;;;;;4977366;28;20081;-83
2021/12/05 11:25:15;;;;;;;1999.90;999.90;;;;;;;;;;4994559;28;20026;-83
2021/12/05 11:27:44;;;;;;;1999.90;999.90;;;;;;;;;;5009407;28;20495;-83
2021/12/05 11:30:23;;;;;;;1999.90;999.90;;;;;;;;;;4996842;28;20037;-82
2021/12/05 11:32:58;;;;;;;1999.90;999.90;;;;;;;;;;5009623;28;20502;-83
2021/12/05 11:35:46;;;;;;;1999.90;999.90;;;;;;;;;;4977965;28;20397;-83
2021/12/05 11:38:19;;;;;;;1999.90;999.90;;;;;;;;;;4993071;28;20034;-83
2021/12/05 11:41:06;;;;;;;1999.90;999.90;;;;;;;;;;4945041;28;20057;-83
2021/12/05 11:43:40;;;;;;;1999.90;999.90;;;;;;;;;;4978508;28;20022;-84
2021/12/05 11:46:28;;;;;;;1999.90;999.90;;;;;;;;;;4960971;28;20042;-83
2021/12/05 11:48:56;;;;;;;1999.90;999.90;;;;;;;;;;4945548;28;20022;-83
2021/12/05 11:51:25;;;;;;;1999.90;999.90;;;;;;;;;;4961041;28;20046;-83
2021/12/05 11:54:09;;;;;;;1999.90;999.90;;;;;;;;;;4961154;28;20044;-83
2021/12/05 11:56:36;;;;;;;1999.90;999.90;;;;;;;;;;5009621;28;20109;-83
2021/12/05 11:59:24;;;;;;;1999.90;999.90;;;;;;;;;;4976482;28;20452;-82
2021/12/05 12:01:54;;;;;;;1999.90;999.90;;;;;;;;;;4976602;28;20026;-83
2021/12/05 12:04:24;;;;;;;1999.90;999.90;;;;;;;;;;4976988;28;20022;-83
2021/12/05 12:07:19;;;;;;;1999.90;999.90;;;;;;;;;;4961108;28;20034;-83
2021/12/05 12:09:45;;;;;;;1999.90;999.90;;;;;;;;;;4978194;28;20030;-83
2021/12/05 12:12:11;;;;;;;1999.90;999.90;;;;;;;;;;4976641;28;20114;-83
2021/12/05 12:14:37;;;;;;;1999.90;999.90;;;;;;;;;;4980108;28;20109;-83
2021/12/05 12:17:08;;;;;;;1999.90;999.90;;;;;;;;;;4963271;28;20045;-83
2021/12/05 12:19:36;;;;;;;1999.90;999.90;;;;;;;;;;4997107;28;20022;-82
2021/12/05 12:22:03;;;;;;;1999.90;999.90;;;;;;;;;;4980071;28;20131;-84
2021/12/05 12:24:29;;;;;;;1999.90;999.90;;;;;;;;;;4996113;28;20030;-84
2021/12/05 12:26:58;;;;;;;1999.90;999.90;;;;;;;;;;4980682;28;20062;-84
2021/12/05 12:29:23;;;;;;;1999.90;999.90;;;;;;;;;;4995506;28;20443;-84
2021/12/05 12:31:49;;;;;;;1999.90;999.90;;;;;;;;;;4979161;28;20531;-84
2021/12/05 12:34:20;;;;;;;1999.90;999.90;;;;;;;;;;4979387;28;20037;-84
2021/12/05 12:36:51;;;;;;;1999.90;999.90;;;;;;;;;;4995612;28;20025;-85
2021/12/05 12:39:16;;;;;;;1999.90;999.90;;;;;;;;;;4978216;28;20018;-84
2021/12/05 12:42:05;;;;;;;1999.90;999.90;;;;;;;;;;5011668;28;20061;-84
2021/12/05 12:44:31;;;;;;;1999.90;999.90;;;;;;;;;;5011788;28;20142;-84
2021/12/05 12:46:59;;;;;;;1999.90;999.90;;;;;;;;;;4995413;28;20085;-86
2021/12/05 12:49:36;;;;;;;1999.90;999.90;;;;;;;;;;4995499;28;20092;-84
2021/12/05 12:52:03;;;;;;;1999.90;999.90;;;;;;;;;;4978911;28;20454;-84
2021/12/05 12:54:57;;;;;;;1999.90;999.90;;;;;;;;;;5011837;28;20030;-85
2021/12/05 12:57:33;;;;;;;1999.90;999.90;;;;;;;;;;4988969;28;20096;-84
2021/12/05 13:00:04;;;;;;;1999.90;999.90;;;;;;;;;;4991690;28;20048;-84
2021/12/05 13:05:24;;;;;;;1999.90;999.90;;;;;;;;;;4991819;28;20413;-84
2021/12/05 13:10:43;;;;;;;1999.90;999.90;;;;;;;;;;5017313;28;20471;-84
2021/12/05 13:13:14;;;;;;;1999.90;999.90;;;;;;;;;;4982400;28;20026;-83
2021/12/05 13:15:44;;;;;;;1999.90;999.90;;;;;;;;;;4982847;28;20076;-83
2021/12/05 13:18:15;;;;;;;1999.90;999.90;;;;;;;;;;4978857;28;20040;-84
2021/12/05 13:20:40;;;;;;;1999.90;999.90;;;;;;;;;;5011030;28;20030;-83
2021/12/05 13:23:17;;;;;;;1999.90;999.90;;;;;;;;;;5010702;28;20026;-83
2021/12/05 13:26:10;;;;;;;1999.90;999.90;;;;;;;;;;4979679;28;20038;-83
2021/12/05 13:28:42;;;;;;;1999.90;999.90;;;;;;;;;;4995247;28;20033;-83
2021/12/05 13:31:26;;;;;;;1999.90;999.90;;;;;;;;;;4978803;28;20103;-83
2021/12/05 13:34:20;;;;;;;1999.90;999.90;;;;;;;;;;5011071;28;20030;-83
2021/12/05 13:36:51;;;;;;;1999.90;999.90;;;;;;;;;;5010445;28;20029;-83
2021/12/05 13:39:39;;;;;;;1999.90;999.90;;;;;;;;;;4994585;28;20124;-82
2021/12/05 13:42:12;;;;;;;1999.90;999.90;;;;;;;;;;5010930;28;20112;-83
2021/12/05 13:44:59;;;;;;;1999.90;999.90;;;;;;;;;;5010912;28;20515;-83
2021/12/05 13:47:32;;;;;;;1999.90;999.90;;;;;;;;;;5027183;28;20052;-83
2021/12/05 13:50:16;;;;;;;1999.90;999.90;;;;;;;;;;4994715;28;20045;-83
2021/12/05 13:52:41;;;;;;;1999.90;999.90;;;;;;;;;;5006960;28;20109;-83
2021/12/05 13:55:39;;;;;;;1999.90;999.90;;;;;;;;;;4991114;28;20628;-83
2021/12/05 13:58:28;;;;;;;1999.90;999.90;;;;;;;;;;4990967;28;20399;-83
2021/12/05 14:01:19;;;;;;;1999.90;999.90;;;;;;;;;;4990849;28;20026;-83
2021/12/05 14:04:12;;;;;;;1999.90;999.90;;;;;;;;;;5007520;28;20033;-82
2021/12/05 14:06:53;;;;;;;;;;;;;;;;;;5007648;28;20042;-82
2021/12/05 14:09:39;;;;;;;1999.90;999.90;;;;;;;;;;5024343;28;19909;-82
2021/12/05 14:12:09;;;;;;;1999.90;999.90;;;;;;;;;;5010825;28;20046;-82
2021/12/05 14:14:43;;;;;;;1999.90;999.90;;;;;;;;;;4990965;28;20058;-83
2021/12/05 14:17:15;;;;;;;1999.90;999.90;;;;;;;;;;4959121;28;20057;-83
2021/12/05 14:19:42;;;;;;;1561.95;758.03;;;;;;;;;;4974725;28;20114;-82
2021/12/05 14:22:11;;;;;;;1999.90;999.90;;;;;;;;;;4974403;28;20124;-83
2021/12/05 14:24:41;;;;;;;1999.90;999.90;;;;;;;;;;4958952;28;20030;-82
2021/12/05 14:27:11;;;;;;;1999.90;999.90;;;;;;;;;;4975433;28;20038;-83
2021/12/05 14:29:40;;;;;;;1999.90;999.90;;;;;;;;;;4978189;28;20036;-83
2021/12/05 14:32:12;;;;;;;1999.90;999.90;;;;;;;;;;4962506;28;20030;-83
2021/12/05 14:34:39;;;;;;;1629.90;771.75;;;;;;;;;;4977705;28;20034;-83
2021/12/05 14:37:16;;;;;;;1999.90;999.90;;;;;;;;;;4961548;28;20488;-83
2021/12/05 14:39:43;;;;;;;1999.90;999.90;;;;;;;;;;4978017;28;20029;-82
2021/12/05 14:42:10;;;;;;;1999.90;999.90;;;;;;;;;;4994124;28;20062;-82
2021/12/05 14:44:37;;;;;;;1999.90;999.90;;;;;;;;;;4961780;28;20018;-83
2021/12/05 14:47:22;;;;;;;1999.90;999.90;;;;;;;;;;4961830;28;20211;-81
2021/12/05 14:49:53;;;;;;;1999.90;999.90;;;;;;;;;;4961612;28;20030;-83
2021/12/05 14:52:40;;;;;;;1999.90;999.90;;;;;;;;;;4976788;28;20121;-82
2021/12/05 14:55:08;;;;;;;1999.90;999.90;;;;;;;;;;4995479;28;20092;-84
2021/12/05 14:57:34;;;;;;;1999.90;999.90;;;;;;;;;;4958628;28;20049;-84
2021/12/05 15:00:09;;;;;;;1999.90;999.90;;;;;;;;;;4991491;28;20497;-84
2021/12/05 15:02:35;;;;;;;1999.90;999.90;;;;;;;;;;4988158;28;20046;-84
2021/12/05 15:05:01;;;;;;;1999.90;999.90;;;;;;;;;;4978396;28;20030;-84
2021/12/05 15:07:26;;;;;;;1999.90;999.90;;;;;;;;;;4978794;28;20033;-84
2021/12/05 15:09:58;;;;;;;1999.90;999.90;;;;;;;;;;5000357;28;20480;-84
2021/12/05 15:12:28;;;;;;;1999.90;999.90;;;;;;;;;;4965949;28;20096;-84
2021/12/05 15:14:56;;;;;;;1999.90;999.90;;;;;;;;;;5003167;28;20041;-84
2021/12/05 15:17:23;;;;;;;1999.90;999.90;;;;;;;;;;4945264;28;20030;-84
2021/12/05 15:19:51;;;;;;;1999.90;999.90;;;;;;;;;;4961730;28;20035;-83
2021/12/05 15:22:17;;;;;;;1999.90;999.90;;;;;;;;;;4973262;28;20489;-84
2021/12/05 15:24:49;;;;;;;1999.90;999.90;;;;;;;;;;4993509;28;20034;-84
2021/12/05 15:27:15;;;;;;;;;;;;;;;;;;4978138;28;20037;-84
2021/12/05 15:29:48;;;;;;;1999.90;999.90;;;;;;;;;;4993714;28;19905;-83
2021/12/05 15:32:18;;;;;;;1999.90;999.90;;;;;;;;;;4960898;28;20065;-84
2021/12/05 15:34:44;;;;;;;1999.90;999.90;;;;;;;;;;4948412;28;20045;-83
2021/12/05 15:37:12;;;;;;;1999.90;999.90;;;;;;;;;;4996937;28;20029;-83
2021/12/05 15:39:40;;;;;;;1999.90;999.90;;;;;;;;;;4964442;28;20061;-83
2021/12/05 15:42:22;;;;;;;1999.90;999.90;;;;;;;;;;4996871;28;20105;-83
2021/12/05 15:44:49;;;;;;;1999.90;999.90;;;;;;;;;;4997385;28;20034;-83
2021/12/05 15:47:17;;;;;;;1999.90;999.90;;;;;;;;;;4963884;28;20033;-83
2021/12/05 15:49:47;;;;;;;1999.90;999.90;;;;;;;;;;4996954;28;20065;-83
2021/12/05 15:52:12;;;;;;;1999.90;999.90;;;;;;;;;;4996227;28;20050;-84
2021/12/05 15:54:44;;;;;;;1999.90;999.90;;;;;;;;;;4996164;28;20104;-83
2021/12/05 15:57:21;;;;;;;1999.90;999.90;;;;;;;;;;4980501;28;20033;-83
2021/12/05 15:59:47;;;;;;;1999.90;999.90;;;;;;;;;;4981044;28;20133;-84
2021/12/05 16:02:17;;;;;;;1999.90;999.90;;;;;;;;;;4979511;28;20124;-83
2021/12/05 16:04:43;;;;;;;1999.90;999.90;;;;;;;;;;4980215;28;20033;-84
2021/12/05 16:07:10;;;;;;;1999.90;999.90;;;;;;;;;;4979905;28;20034;-84
2021/12/05 16:09:36;;;;;;;1999.90;999.90;;;;;;;;;;4999117;28;20380;-84
2021/12/05 16:12:20;;;;;;;1999.90;999.90;;;;;;;;;;4999275;28;20502;-83
2021/12/05 16:14:48;;;;;;;1999.90;999.90;;;;;;;;;;5011490;28;20455;-84
2021/12/05 16:17:25;;;;;;;1999.90;999.90;;;;;;;;;;4995925;28;20058;-83
2021/12/05 16:20:03;;;;;;;1999.90;999.90;;;;;;;;;;4980979;28;20095;-84
2021/12/05 16:22:28;;;;;;;1999.90;999.90;;;;;;;;;;5012271;28;20033;-83
2021/12/05 16:24:54;;;;;;;1999.90;999.90;;;;;;;;;;4979493;28;20091;-83
2021/12/05 16:27:19;;;;;;;1999.90;999.90;;;;;;;;;;4995326;28;20096;-82
2021/12/05 16:29:45;;;;;;;1617.97;760.38;;;;;;;;;;4975432;28;20400;-83
2021/12/05 16:32:10;;;;;;;1999.90;999.90;;;;;;;;;;4979592;28;20559;-87
2021/12/05 16:34:36;;;;;;;1999.90;999.90;;;;;;;;;;4996110;28;20045;-89
2021/12/05 16:37:04;;;;;;;1626.28;759.53;;;;;;;;;;4996140;28;20511;-88
2021/12/05 16:39:42;;;;;;;1999.90;999.90;;;;;;;;;;4980305;28;20034;-92
2021/12/05 16:42:08;;;;;;;1999.90;999.90;;;;;;;;;;4979331;28;20089;-84
2021/12/05 16:44:34;;;;;;;1999.90;999.90;;;;;;;;;;5012179;28;20065;-92
2021/12/05 16:47:11;;;;;;;1999.90;999.90;;;;;;;;;;4980240;28;20046;-93
2021/12/05 16:49:38;;;;;;;1623.90;758.38;;;;;;;;;;4997378;28;20018;-92
2021/12/05 16:52:09;;;;;;;1325.57;523.70;;;;;;;;;;4980005;28;20171;-91
2021/12/05 16:54:42;;;;;;;1717.32;768.38;;;;;;;;;;4980051;28;20124;-91
2021/12/05 16:57:11;;;;;;;;;;;;;;;;;;4965528;28;20033;-92
2021/12/05 16:59:36;;;;;;;1999.90;999.90;;;;;;;;;;5012076;28;19956;-92
2021/12/05 17:02:32;;;;;;;1999.90;999.90;;;;;;;;;;4995711;28;20524;-92
2021/12/05 17:05:06;;;;;;;1999.90;999.90;;;;;;;;;;4992526;28;20035;-91
2021/12/05 17:07:50;;;;;;;1999.90;999.90;;;;;;;;;;4982034;28;20022;-92
2021/12/05 17:10:21;;;;;;;1999.90;999.90;;;;;;;;;;5011924;28;20041;-92
2021/12/05 17:12:50;;;;;;;1999.90;999.90;;;;;;;;;;4983763;28;20029;-92
2021/12/05 17:15:27;;;;;;;1589.93;756.17;;;;;;;;;;4976250;28;20030;-92
2021/12/05 17:18:00;;;;;;;1999.90;999.90;;;;;;;;;;4944797;28;20030;-92
2021/12/05 17:20:28;;;;;;;1999.90;999.90;;;;;;;;;;4978590;28;20038;-91
2021/12/05 17:22:58;;;;;;;1794.45;772.45;;;;;;;;;;4976084;28;20057;-91
2021/12/05 17:25:35;;;;;;;590.85;47.70;;;;;;;;;;4976321;28;20405;-90
2021/12/05 17:28:02;;;;;;;1999.90;999.90;;;;;;;;;;4976056;28;20076;-92
2021/12/05 17:30:27;;;;;;;1999.90;999.90;;;;;;;;;;4977767;28;20030;-92
2021/12/05 17:32:53;;;;;;;1691.07;767.53;;;;;;;;;;4978939;28;20030;-92
2021/12/05 17:35:18;;;;;;;1999.90;999.90;;;;;;;;;;4976229;28;20026;-92
2021/12/05 17:37:45;;;;;;;1999.90;999.90;;;;;;;;;;4945286;28;20036;-93
2021/12/05 17:40:11;;;;;;;706.67;47.00;;;;;;;;;;4974355;28;20481;-93
2021/12/05 17:42:39;;;;;;;1999.90;999.90;;;;;;;;;;4990528;28;20036;-92
2021/12/05 17:45:06;;;;;;;1999.90;999.90;;;;;;;;;;4962219;28;20032;-92
2021/12/05 17:47:32;;;;;;;1764.75;770.35;;;;;;;;;;4976321;28;20066;-93
2021/12/05 17:50:01;;;;;;;1268.57;519.28;;;;;;;;;;4975381;28;20027;-93
2021/12/05 17:52:27;;;;;;;1241.53;518.40;;;;;;;;;;4989594;28;20026;-92
2021/12/05 17:55:00;;;;;;;1999.90;999.90;;;;;;;;;;4963006;28;20037;-92
2021/12/05 18:00:14;;;;;;;1999.90;999.90;;;;;;;;;;4980828;28;20029;-91
2021/12/05 18:05:31;;;;;;;1378.80;532.10;;;;;;;;;;4993853;28;20381;-90
2021/12/05 18:07:58;;;;;;;1708.13;764.90;;;;;;;;;;5017479;28;20464;-92
2021/12/05 18:10:26;;;;;;;1841.25;778.38;;;;;;;;;;4999003;28;20043;-90
2021/12/05 18:12:53;;;;;;;1999.90;999.90;;;;;;;;;;4998380;28;20033;-88
2021/12/05 18:15:26;;;;;;;1370.07;537.65;;;;;;;;;;4960822;28;20354;-85
2021/12/05 18:17:52;;;;;;;1999.90;999.90;;;;;;;;;;4978473;28;20399;-87
2021/12/05 18:20:19;;;;;;;1999.90;999.90;;;;;;;;;;4978643;28;20077;-86
2021/12/05 18:22:45;;;;;;;1817.47;776.00;;;;;;;;;;4962490;28;20480;-91
2021/12/05 18:25:13;;;;;;;1833.50;783.53;;;;;;;;;;4995220;28;20070;-91
2021/12/05 18:27:40;;;;;;;1616.43;762.97;;;;;;;;;;4979141;28;20488;-92
2021/12/05 18:30:06;;;;;;;1999.90;999.90;;;;;;;;;;4995089;28;20384;-91
2021/12/05 18:32:31;;;;;;;1999.90;999.90;;;;;;;;;;4995179;28;20030;-91
2021/12/05 18:34:57;;;;;;;1816.68;574.00;;;;;;;;;;4979065;28;20033;-90
2021/12/05 18:37:22;;;;;;;1999.90;999.90;;;;;;;;;;4979396;28;20045;-92
2021/12/05 18:39:50;;;;;;;1724.57;768.03;;;;;;;;;;4997752;28;20029;-87
2021/12/05 18:42:17;;;;;;;1504.43;138.90;;;;;;;;;;4981612;28;20030;-82
2021/12/05 18:44:47;;;;;;;1611.50;762.67;;;;;;;;;;5013806;28;20477;-84
2021/12/05 18:47:13;;;;;;;1999.90;999.90;;;;;;;;;;4978812;28;20146;-83
2021/12/05 18:49:38;;;;;;;1835.35;782.25;;;;;;;;;;4981094;28;20041;-81
2021/12/05 18:52:04;;;;;;;1691.82;586.80;;;;;;;;;;4981548;28;20036;-87
2021/12/05 18:54:30;;;;;;;1807.70;598.25;;;;;;;;;;4981562;28;20109;-82
2021/12/05 18:56:55;;;;;;;1999.90;999.90;;;;;;;;;;4980572;28;20116;-83
2021/12/05 18:59:23;;;;;;;832.53;115.78;;;;;;;;;;4997758;28;20503;-91
2021/12/05 19:04:47;;;;;;;1999.90;999.90;;;;;;;;;;4993223;28;20029;-91
2021/12/05 19:07:20;;;;;;;1999.90;999.90;;;;;;;;;;4966227;28;20041;-91
2021/12/05 19:12:27;;;;;;;1999.90;999.90;;;;;;;;;;4998684;28;20034;-93
2021/12/05 19:14:55;;;;;;;1999.90;999.90;;;;;;;;;;4966460;28;20022;-93
2021/12/05 19:17:23;;;;;;;1795.53;788.78;;;;;;;;;;4964038;28;20048;-92
2021/12/05 19:19:53;;;;;;;1159.78;107.75;;;;;;;;;;4963806;28;20034;-93
2021/12/05 19:22:25;;;;;;;1827.50;794.92;;;;;;;;;;4947354;28;20030;-92
2021/12/05 19:24:54;;;;;;;;;;;;;;;;;;4959176;28;20041;-92
2021/12/05 19:27:21;;;;;;;1561.72;754.45;;;;;;;;;;5000360;28;19913;-92
2021/12/05 19:29:48;;;;;;;1777.50;772.10;;;;;;;;;;4984939;28;20454;-92